Pismo Beach, CA (93448)

8:07 AM PST on February 09, 2016 (GMT -0800)
North West Grover Beach | | Change Station
CLOSE
Current Station
Personal Weather Station
Location: Grover Beach, CA
Elevation: 92 ft
Nearby Weather Stations

Elev 92 ft 35.13 °N, 120.63 °W | Updated 13 minutes ago

Clear
Clear
57.6 °F
Feels Like 57.6 °F
N
0.0
Wind Variable Wind from NNW

Today
High -- | Low -- °F
--% Chance of Precip.
Yesterday
High -- | Low -- °F
Precip. -- in
Pressure 30.19 in
Visibility 10.0 miles
Clouds Clear
Dew Point 43 °F
Humidity 59%
Rainfall 0.00 in
Snow Depth Not available.
6:55 AM 5:38 PM
New Moon, 2% visible
METAR KSBP 091556Z 00000KT 10SM CLR 09/05 A3019 RMK AO2 SLP222 T00940050
Pressure 30.19 in
Visibility 10.0 miles
Clouds Clear
Dew Point 43 °F
Humidity 59%
Rainfall 0.00 in
Snow Depth Not available.
6:55 AM 5:38 PM
New Moon, 2% visible
METAR KSBP 091556Z 00000KT 10SM CLR 09/05 A3019 RMK AO2 SLP222 T00940050

10-Day Weather Forecast

Almanac

Astronomy

Feb. 09, 2016 Rise Set
Actual Time
Civil Twilight
Nautical Twilight
Astronomical Twilight
Moon
Length of Visible Light
Length of Day
Tomorrow will be .
, % of the Moon is Illuminated

Today's Extremes

State Highs State Lows

Community

WunderPhotos

Upload Photos

1,891,628 photos uploaded!

WunderBlog® & News

Nearby

Air Quality

  Air Quality AQ Index Pollutant
Not available.

Snow Depth

Station Depth Elevation

Earthquake Activity

City Distance Mag. Time & Date
Minimum magnitude displayed is 2.5.

Coastal Water Temperatures

Place Temperature

Stations

Nearby Weather Stations

Station Location Temp. Windchill Dew Point Humidity Wind Precip. Elev Updated Type
                   

Watches & Warnings

There are currently no watches in effect.